sensor_id;sensor_type;location;lat;lon;timestamp;P1;durP1;ratioP1;P2;durP2;ratioP2
61962;SDS011;47927;42.646;23.096;2023-02-15T00:00:11;22.10;;;10.25;;
61962;SDS011;47927;42.646;23.096;2023-02-15T00:02:37;23.00;;;11.27;;
61962;SDS011;47927;42.646;23.096;2023-02-15T00:05:04;22.55;;;10.60;;
61962;SDS011;47927;42.646;23.096;2023-02-15T00:07:30;16.63;;;9.48;;
61962;SDS011;47927;42.646;23.096;2023-02-15T00:09:55;17.17;;;10.05;;
61962;SDS011;47927;42.646;23.096;2023-02-15T00:12:21;17.85;;;9.73;;
61962;SDS011;47927;42.646;23.096;2023-02-15T00:14:47;21.25;;;11.20;;
61962;SDS011;47927;42.646;23.096;2023-02-15T00:17:12;19.40;;;10.00;;
61962;SDS011;47927;42.646;23.096;2023-02-15T00:19:38;19.30;;;10.73;;
61962;SDS011;47927;42.646;23.096;2023-02-15T00:22:05;20.25;;;12.30;;
61962;SDS011;47927;42.646;23.096;2023-02-15T00:24:31;18.75;;;10.05;;
61962;SDS011;47927;42.646;23.096;2023-02-15T00:26:57;19.40;;;10.93;;
61962;SDS011;47927;42.646;23.096;2023-02-15T00:29:22;21.33;;;11.07;;
61962;SDS011;47927;42.646;23.096;2023-02-15T00:31:48;20.63;;;10.65;;
61962;SDS011;47927;42.646;23.096;2023-02-15T00:34:18;22.67;;;11.20;;
61962;SDS011;47927;42.646;23.096;2023-02-15T00:36:47;21.92;;;11.88;;
61962;SDS011;47927;42.646;23.096;2023-02-15T00:39:14;20.50;;;10.95;;
61962;SDS011;47927;42.646;23.096;2023-02-15T00:41:40;18.80;;;9.93;;
61962;SDS011;47927;42.646;23.096;2023-02-15T00:44:06;21.80;;;12.13;;
61962;SDS011;47927;42.646;23.096;2023-02-15T00:46:32;19.63;;;10.70;;
61962;SDS011;47927;42.646;23.096;2023-02-15T00:48:58;17.45;;;9.80;;
61962;SDS011;47927;42.646;23.096;2023-02-15T00:51:24;16.63;;;10.23;;
61962;SDS011;47927;42.646;23.096;2023-02-15T00:53:49;18.65;;;10.60;;
61962;SDS011;47927;42.646;23.096;2023-02-15T00:56:15;18.60;;;10.40;;
61962;SDS011;47927;42.646;23.096;2023-02-15T00:58:40;17.55;;;10.05;;
61962;SDS011;47927;42.646;23.096;2023-02-15T01:01:09;19.88;;;10.95;;
61962;SDS011;47927;42.646;23.096;2023-02-15T01:03:36;15.18;;;9.05;;
61962;SDS011;47927;42.646;23.096;2023-02-15T01:06:02;18.52;;;10.93;;
61962;SDS011;47927;42.646;23.096;2023-02-15T01:08:29;18.98;;;9.75;;
61962;SDS011;47927;42.646;23.096;2023-02-15T01:10:55;18.50;;;10.75;;
61962;SDS011;47927;42.646;23.096;2023-02-15T01:13:21;19.33;;;9.93;;
61962;SDS011;47927;42.646;23.096;2023-02-15T01:15:52;17.42;;;10.65;;
61962;SDS011;47927;42.646;23.096;2023-02-15T01:18:19;18.88;;;9.90;;
61962;SDS011;47927;42.646;23.096;2023-02-15T01:20:47;17.13;;;10.13;;
61962;SDS011;47927;42.646;23.096;2023-02-15T01:23:13;18.33;;;10.18;;
61962;SDS011;47927;42.646;23.096;2023-02-15T01:25:39;18.05;;;11.00;;
61962;SDS011;47927;42.646;23.096;2023-02-15T01:28:05;20.27;;;9.90;;
61962;SDS011;47927;42.646;23.096;2023-02-15T01:30:31;18.73;;;9.20;;
61962;SDS011;47927;42.646;23.096;2023-02-15T01:32:57;17.58;;;9.48;;
61962;SDS011;47927;42.646;23.096;2023-02-15T01:35:23;15.38;;;9.43;;
61962;SDS011;47927;42.646;23.096;2023-02-15T01:37:49;15.93;;;9.55;;
61962;SDS011;47927;42.646;23.096;2023-02-15T01:40:16;16.52;;;9.07;;
61962;SDS011;47927;42.646;23.096;2023-02-15T01:42:43;18.48;;;9.95;;
61962;SDS011;47927;42.646;23.096;2023-02-15T01:50:39;14.73;;;8.80;;
61962;SDS011;47927;42.646;23.096;2023-02-15T01:53:09;18.65;;;9.57;;
61962;SDS011;47927;42.646;23.096;2023-02-15T01:55:44;16.77;;;9.35;;
61962;SDS011;47927;42.646;23.096;2023-02-15T01:58:15;14.25;;;8.40;;
61962;SDS011;47927;42.646;23.096;2023-02-15T02:00:41;15.13;;;8.98;;
61962;SDS011;47927;42.646;23.096;2023-02-15T02:03:08;14.65;;;8.27;;
61962;SDS011;47927;42.646;23.096;2023-02-15T02:05:34;16.08;;;9.77;;
61962;SDS011;47927;42.646;23.096;2023-02-15T02:08:01;14.52;;;9.02;;
61962;SDS011;47927;42.646;23.096;2023-02-15T02:10:27;11.10;;;7.03;;
61962;SDS011;47927;42.646;23.096;2023-02-15T02:12:57;12.75;;;8.93;;
61962;SDS011;47927;42.646;23.096;2023-02-15T02:18:19;15.80;;;8.38;;
61962;SDS011;47927;42.646;23.096;2023-02-15T02:34:16;13.20;;;8.45;;
61962;SDS011;47927;42.646;23.096;2023-02-15T02:36:59;11.98;;;7.38;;
61962;SDS011;47927;42.646;23.096;2023-02-15T02:42:48;16.45;;;8.52;;
61962;SDS011;47927;42.646;23.096;2023-02-15T02:45:16;15.70;;;8.32;;
61962;SDS011;47927;42.646;23.096;2023-02-15T02:47:50;14.02;;;8.23;;
61962;SDS011;47927;42.646;23.096;2023-02-15T02:50:23;15.65;;;9.05;;
61962;SDS011;47927;42.646;23.096;2023-02-15T02:52:52;16.15;;;8.40;;
61962;SDS011;47927;42.646;23.096;2023-02-15T02:55:27;18.35;;;9.23;;
61962;SDS011;47927;42.646;23.096;2023-02-15T03:00:53;15.57;;;8.30;;
61962;SDS011;47927;42.646;23.096;2023-02-15T03:03:29;13.75;;;8.77;;
61962;SDS011;47927;42.646;23.096;2023-02-15T03:06:05;18.48;;;10.15;;
61962;SDS011;47927;42.646;23.096;2023-02-15T03:08:37;20.40;;;10.23;;
61962;SDS011;47927;42.646;23.096;2023-02-15T03:11:07;18.42;;;9.43;;
61962;SDS011;47927;42.646;23.096;2023-02-15T03:13:33;16.55;;;10.88;;
61962;SDS011;47927;42.646;23.096;2023-02-15T03:15:59;17.73;;;9.18;;
61962;SDS011;47927;42.646;23.096;2023-02-15T03:18:46;17.67;;;8.50;;
61962;SDS011;47927;42.646;23.096;2023-02-15T03:21:20;19.20;;;10.05;;
61962;SDS011;47927;42.646;23.096;2023-02-15T03:23:52;17.37;;;9.77;;
61962;SDS011;47927;42.646;23.096;2023-02-15T03:26:22;18.10;;;9.82;;
61962;SDS011;47927;42.646;23.096;2023-02-15T03:28:50;16.88;;;9.82;;
61962;SDS011;47927;42.646;23.096;2023-02-15T03:31:21;17.95;;;9.57;;
61962;SDS011;47927;42.646;23.096;2023-02-15T03:36:27;13.57;;;7.85;;
61962;SDS011;47927;42.646;23.096;2023-02-15T03:44:31;15.82;;;8.93;;
61962;SDS011;47927;42.646;23.096;2023-02-15T03:47:08;17.17;;;7.93;;
61962;SDS011;47927;42.646;23.096;2023-02-15T03:49:43;15.82;;;8.38;;
61962;SDS011;47927;42.646;23.096;2023-02-15T03:52:14;17.58;;;8.35;;
61962;SDS011;47927;42.646;23.096;2023-02-15T03:54:42;15.25;;;8.13;;
61962;SDS011;47927;42.646;23.096;2023-02-15T03:57:10;16.80;;;9.13;;
61962;SDS011;47927;42.646;23.096;2023-02-15T03:59:57;16.58;;;8.63;;
61962;SDS011;47927;42.646;23.096;2023-02-15T04:02:52;17.83;;;9.77;;
61962;SDS011;47927;42.646;23.096;2023-02-15T04:05:20;20.45;;;10.63;;
61962;SDS011;47927;42.646;23.096;2023-02-15T04:07:46;18.38;;;10.18;;
61962;SDS011;47927;42.646;23.096;2023-02-15T04:10:11;17.40;;;9.52;;
61962;SDS011;47927;42.646;23.096;2023-02-15T04:12:55;14.45;;;8.90;;
61962;SDS011;47927;42.646;23.096;2023-02-15T04:15:21;14.88;;;8.82;;
61962;SDS011;47927;42.646;23.096;2023-02-15T04:18:05;15.30;;;8.65;;
61962;SDS011;47927;42.646;23.096;2023-02-15T04:20:30;15.88;;;8.75;;
61962;SDS011;47927;42.646;23.096;2023-02-15T04:23:15;16.60;;;8.82;;
61962;SDS011;47927;42.646;23.096;2023-02-15T04:25:58;13.88;;;8.38;;
61962;SDS011;47927;42.646;23.096;2023-02-15T04:28:24;17.65;;;9.35;;
61962;SDS011;47927;42.646;23.096;2023-02-15T04:30:49;15.73;;;8.70;;
61962;SDS011;47927;42.646;23.096;2023-02-15T04:33:15;15.93;;;9.45;;
61962;SDS011;47927;42.646;23.096;2023-02-15T04:35:42;15.35;;;8.88;;
61962;SDS011;47927;42.646;23.096;2023-02-15T04:38:10;14.50;;;8.43;;
61962;SDS011;47927;42.646;23.096;2023-02-15T04:40:35;16.63;;;10.48;;
61962;SDS011;47927;42.646;23.096;2023-02-15T04:43:01;17.33;;;9.45;;
61962;SDS011;47927;42.646;23.096;2023-02-15T04:45:26;18.02;;;11.15;;
61962;SDS011;47927;42.646;23.096;2023-02-15T04:47:52;16.25;;;8.73;;
61962;SDS011;47927;42.646;23.096;2023-02-15T04:50:18;17.10;;;9.93;;
61962;SDS011;47927;42.646;23.096;2023-02-15T04:52:43;19.33;;;10.75;;
61962;SDS011;47927;42.646;23.096;2023-02-15T04:55:09;19.05;;;9.40;;
61962;SDS011;47927;42.646;23.096;2023-02-15T04:57:35;20.25;;;9.30;;
61962;SDS011;47927;42.646;23.096;2023-02-15T05:00:00;14.93;;;8.90;;
61962;SDS011;47927;42.646;23.096;2023-02-15T05:02:26;16.02;;;9.32;;
61962;SDS011;47927;42.646;23.096;2023-02-15T05:04:51;16.08;;;8.73;;
61962;SDS011;47927;42.646;23.096;2023-02-15T05:07:17;15.77;;;8.75;;
61962;SDS011;47927;42.646;23.096;2023-02-15T05:09:45;19.15;;;9.70;;
61962;SDS011;47927;42.646;23.096;2023-02-15T05:12:10;16.42;;;9.38;;
61962;SDS011;47927;42.646;23.096;2023-02-15T05:14:36;17.17;;;9.80;;
61962;SDS011;47927;42.646;23.096;2023-02-15T05:17:02;17.95;;;9.65;;
61962;SDS011;47927;42.646;23.096;2023-02-15T05:19:28;17.85;;;9.13;;
61962;SDS011;47927;42.646;23.096;2023-02-15T05:21:54;15.43;;;9.30;;
61962;SDS011;47927;42.646;23.096;2023-02-15T05:24:20;19.98;;;11.07;;
61962;SDS011;47927;42.646;23.096;2023-02-15T05:27:04;15.07;;;8.73;;
61962;SDS011;47927;42.646;23.096;2023-02-15T05:29:50;17.45;;;10.15;;
61962;SDS011;47927;42.646;23.096;2023-02-15T05:32:15;17.30;;;9.07;;
61962;SDS011;47927;42.646;23.096;2023-02-15T05:34:41;16.83;;;10.00;;
61962;SDS011;47927;42.646;23.096;2023-02-15T05:37:06;17.23;;;8.80;;
61962;SDS011;47927;42.646;23.096;2023-02-15T05:39:33;17.60;;;10.23;;
61962;SDS011;47927;42.646;23.096;2023-02-15T05:41:59;20.15;;;9.68;;
61962;SDS011;47927;42.646;23.096;2023-02-15T05:44:25;16.73;;;9.70;;
61962;SDS011;47927;42.646;23.096;2023-02-15T05:46:50;20.58;;;10.43;;
61962;SDS011;47927;42.646;23.096;2023-02-15T05:49:16;19.83;;;10.60;;
61962;SDS011;47927;42.646;23.096;2023-02-15T05:51:42;16.50;;;9.85;;
61962;SDS011;47927;42.646;23.096;2023-02-15T05:54:07;16.38;;;9.43;;
61962;SDS011;47927;42.646;23.096;2023-02-15T05:56:33;17.17;;;8.50;;
61962;SDS011;47927;42.646;23.096;2023-02-15T05:58:58;15.35;;;8.70;;
61962;SDS011;47927;42.646;23.096;2023-02-15T06:01:24;15.68;;;8.48;;
61962;SDS011;47927;42.646;23.096;2023-02-15T06:03:49;16.92;;;9.73;;
61962;SDS011;47927;42.646;23.096;2023-02-15T06:06:15;15.88;;;8.88;;
61962;SDS011;47927;42.646;23.096;2023-02-15T06:08:41;18.35;;;10.02;;
61962;SDS011;47927;42.646;23.096;2023-02-15T06:11:07;16.75;;;9.32;;
61962;SDS011;47927;42.646;23.096;2023-02-15T06:13:33;18.60;;;10.40;;
61962;SDS011;47927;42.646;23.096;2023-02-15T06:15:59;16.75;;;10.20;;
61962;SDS011;47927;42.646;23.096;2023-02-15T06:18:25;17.52;;;9.20;;
61962;SDS011;47927;42.646;23.096;2023-02-15T06:20:50;14.43;;;8.93;;
61962;SDS011;47927;42.646;23.096;2023-02-15T06:23:16;15.60;;;8.77;;
61962;SDS011;47927;42.646;23.096;2023-02-15T06:25:43;18.08;;;9.85;;
61962;SDS011;47927;42.646;23.096;2023-02-15T06:28:10;17.33;;;8.82;;
61962;SDS011;47927;42.646;23.096;2023-02-15T06:30:35;14.18;;;8.30;;
61962;SDS011;47927;42.646;23.096;2023-02-15T06:33:01;17.75;;;9.73;;
61962;SDS011;47927;42.646;23.096;2023-02-15T06:35:26;17.15;;;9.30;;
61962;SDS011;47927;42.646;23.096;2023-02-15T06:37:52;15.15;;;8.35;;
61962;SDS011;47927;42.646;23.096;2023-02-15T06:40:18;17.17;;;10.05;;
61962;SDS011;47927;42.646;23.096;2023-02-15T06:42:44;14.73;;;9.63;;
61962;SDS011;47927;42.646;23.096;2023-02-15T06:45:10;19.50;;;10.57;;
61962;SDS011;47927;42.646;23.096;2023-02-15T06:47:36;17.60;;;10.65;;
61962;SDS011;47927;42.646;23.096;2023-02-15T06:50:02;18.55;;;9.20;;
61962;SDS011;47927;42.646;23.096;2023-02-15T06:52:28;16.42;;;9.48;;
61962;SDS011;47927;42.646;23.096;2023-02-15T06:54:54;15.82;;;9.05;;
61962;SDS011;47927;42.646;23.096;2023-02-15T06:57:20;17.08;;;10.05;;
61962;SDS011;47927;42.646;23.096;2023-02-15T06:59:46;14.75;;;8.27;;
61962;SDS011;47927;42.646;23.096;2023-02-15T07:02:11;16.83;;;8.93;;
61962;SDS011;47927;42.646;23.096;2023-02-15T07:04:37;15.68;;;9.15;;
61962;SDS011;47927;42.646;23.096;2023-02-15T07:07:02;17.80;;;8.45;;
61962;SDS011;47927;42.646;23.096;2023-02-15T07:09:28;15.65;;;8.68;;
61962;SDS011;47927;42.646;23.096;2023-02-15T07:11:54;14.48;;;8.32;;
61962;SDS011;47927;42.646;23.096;2023-02-15T07:14:38;17.83;;;9.95;;
61962;SDS011;47927;42.646;23.096;2023-02-15T07:17:03;15.65;;;8.85;;
61962;SDS011;47927;42.646;23.096;2023-02-15T07:19:29;15.65;;;8.60;;
61962;SDS011;47927;42.646;23.096;2023-02-15T07:21:54;14.32;;;8.35;;
61962;SDS011;47927;42.646;23.096;2023-02-15T07:24:20;15.25;;;8.20;;
61962;SDS011;47927;42.646;23.096;2023-02-15T07:26:45;13.52;;;7.53;;
61962;SDS011;47927;42.646;23.096;2023-02-15T07:29:11;12.48;;;7.45;;
61962;SDS011;47927;42.646;23.096;2023-02-15T07:31:36;11.88;;;6.72;;
61962;SDS011;47927;42.646;23.096;2023-02-15T07:45:22;10.80;;;6.32;;
61962;SDS011;47927;42.646;23.096;2023-02-15T07:47:48;15.27;;;7.05;;
61962;SDS011;47927;42.646;23.096;2023-02-15T07:50:14;12.88;;;6.72;;
61962;SDS011;47927;42.646;23.096;2023-02-15T07:52:39;12.98;;;6.90;;
61962;SDS011;47927;42.646;23.096;2023-02-15T07:55:05;14.02;;;7.28;;
61962;SDS011;47927;42.646;23.096;2023-02-15T07:57:31;10.57;;;6.82;;
61962;SDS011;47927;42.646;23.096;2023-02-15T07:59:56;11.50;;;6.88;;
61962;SDS011;47927;42.646;23.096;2023-02-15T08:02:22;12.02;;;5.72;;
61962;SDS011;47927;42.646;23.096;2023-02-15T08:04:47;11.98;;;6.40;;
61962;SDS011;47927;42.646;23.096;2023-02-15T08:07:13;13.32;;;7.15;;
61962;SDS011;47927;42.646;23.096;2023-02-15T08:09:38;13.73;;;7.35;;
61962;SDS011;47927;42.646;23.096;2023-02-15T08:12:04;10.15;;;5.65;;
61962;SDS011;47927;42.646;23.096;2023-02-15T08:14:29;12.63;;;7.55;;
61962;SDS011;47927;42.646;23.096;2023-02-15T08:16:55;12.63;;;6.47;;
61962;SDS011;47927;42.646;23.096;2023-02-15T08:19:25;13.50;;;6.90;;
61962;SDS011;47927;42.646;23.096;2023-02-15T08:21:53;13.88;;;6.57;;
61962;SDS011;47927;42.646;23.096;2023-02-15T08:24:24;13.32;;;7.43;;
61962;SDS011;47927;42.646;23.096;2023-02-15T08:26:52;12.70;;;7.45;;
61962;SDS011;47927;42.646;23.096;2023-02-15T08:29:19;15.93;;;7.22;;
61962;SDS011;47927;42.646;23.096;2023-02-15T08:31:49;14.35;;;6.75;;
61962;SDS011;47927;42.646;23.096;2023-02-15T08:34:18;11.68;;;7.20;;
61962;SDS011;47927;42.646;23.096;2023-02-15T08:36:45;14.27;;;7.22;;
61962;SDS011;47927;42.646;23.096;2023-02-15T08:39:11;12.65;;;7.22;;
61962;SDS011;47927;42.646;23.096;2023-02-15T08:41:38;14.38;;;6.95;;
61962;SDS011;47927;42.646;23.096;2023-02-15T08:44:08;13.52;;;6.85;;
61962;SDS011;47927;42.646;23.096;2023-02-15T08:46:36;13.85;;;7.07;;
61962;SDS011;47927;42.646;23.096;2023-02-15T08:49:04;14.65;;;6.55;;
61962;SDS011;47927;42.646;23.096;2023-02-15T08:51:32;11.68;;;6.57;;
61962;SDS011;47927;42.646;23.096;2023-02-15T08:54:00;11.32;;;6.25;;
61962;SDS011;47927;42.646;23.096;2023-02-15T08:56:30;10.35;;;6.00;;
61962;SDS011;47927;42.646;23.096;2023-02-15T08:58:58;12.50;;;7.40;;
61962;SDS011;47927;42.646;23.096;2023-02-15T09:01:25;9.52;;;6.55;;
61962;SDS011;47927;42.646;23.096;2023-02-15T09:04:00;9.57;;;6.22;;
61962;SDS011;47927;42.646;23.096;2023-02-15T09:06:28;12.75;;;7.38;;
61962;SDS011;47927;42.646;23.096;2023-02-15T09:08:55;12.95;;;7.40;;
61962;SDS011;47927;42.646;23.096;2023-02-15T09:11:25;11.80;;;7.05;;
61962;SDS011;47927;42.646;23.096;2023-02-15T09:14:03;15.32;;;8.98;;
61962;SDS011;47927;42.646;23.096;2023-02-15T09:16:32;13.25;;;8.27;;
61962;SDS011;47927;42.646;23.096;2023-02-15T09:19:01;14.25;;;7.70;;
61962;SDS011;47927;42.646;23.096;2023-02-15T09:21:30;12.48;;;7.72;;
61962;SDS011;47927;42.646;23.096;2023-02-15T09:23:58;13.10;;;7.20;;
61962;SDS011;47927;42.646;23.096;2023-02-15T09:26:26;14.35;;;7.85;;
61962;SDS011;47927;42.646;23.096;2023-02-15T09:28:56;11.88;;;7.57;;
61962;SDS011;47927;42.646;23.096;2023-02-15T09:31:25;13.32;;;7.70;;
61962;SDS011;47927;42.646;23.096;2023-02-15T09:33:52;16.83;;;9.55;;
61962;SDS011;47927;42.646;23.096;2023-02-15T09:46:25;12.30;;;7.70;;
61962;SDS011;47927;42.646;23.096;2023-02-15T09:49:05;13.57;;;7.32;;
61962;SDS011;47927;42.646;23.096;2023-02-15T10:01:06;14.20;;;8.05;;
61962;SDS011;47927;42.646;23.096;2023-02-15T10:03:40;13.23;;;7.53;;
61962;SDS011;47927;42.646;23.096;2023-02-15T10:06:29;18.02;;;8.30;;
61962;SDS011;47927;42.646;23.096;2023-02-15T10:09:14;13.23;;;8.15;;
61962;SDS011;47927;42.646;23.096;2023-02-15T10:17:48;11.73;;;7.57;;
61962;SDS011;47927;42.646;23.096;2023-02-15T10:26:18;10.15;;;6.90;;
61962;SDS011;47927;42.646;23.096;2023-02-15T10:34:18;9.75;;;6.35;;
61962;SDS011;47927;42.646;23.096;2023-02-15T11:00:52;13.25;;;7.40;;
61962;SDS011;47927;42.646;23.096;2023-02-15T11:06:33;15.02;;;9.07;;
61962;SDS011;47927;42.646;23.096;2023-02-15T11:09:09;14.20;;;8.90;;
61962;SDS011;47927;42.646;23.096;2023-02-15T11:11:39;14.07;;;8.40;;
61962;SDS011;47927;42.646;23.096;2023-02-15T11:16:57;13.73;;;8.80;;
61962;SDS011;47927;42.646;23.096;2023-02-15T11:19:39;14.02;;;8.05;;
61962;SDS011;47927;42.646;23.096;2023-02-15T11:22:14;13.32;;;8.40;;
61962;SDS011;47927;42.646;23.096;2023-02-15T11:24:41;14.40;;;8.40;;
61962;SDS011;47927;42.646;23.096;2023-02-15T11:27:22;13.95;;;9.27;;
61962;SDS011;47927;42.646;23.096;2023-02-15T11:32:37;14.93;;;8.73;;
61962;SDS011;47927;42.646;23.096;2023-02-15T11:42:56;15.20;;;8.55;;
61962;SDS011;47927;42.646;23.096;2023-02-15T11:45:28;11.98;;;7.80;;
61962;SDS011;47927;42.646;23.096;2023-02-15T11:47:56;14.65;;;8.98;;
61962;SDS011;47927;42.646;23.096;2023-02-15T11:50:24;14.35;;;8.90;;
61962;SDS011;47927;42.646;23.096;2023-02-15T11:52:52;15.35;;;9.23;;
61962;SDS011;47927;42.646;23.096;2023-02-15T11:55:23;16.73;;;9.20;;
61962;SDS011;47927;42.646;23.096;2023-02-15T11:58:15;14.35;;;8.75;;
61962;SDS011;47927;42.646;23.096;2023-02-15T12:00:46;15.75;;;9.13;;
61962;SDS011;47927;42.646;23.096;2023-02-15T12:03:22;16.75;;;8.70;;
61962;SDS011;47927;42.646;23.096;2023-02-15T12:08:30;14.68;;;7.85;;
61962;SDS011;47927;42.646;23.096;2023-02-15T12:11:08;15.38;;;9.48;;
61962;SDS011;47927;42.646;23.096;2023-02-15T12:14:00;13.75;;;8.60;;
61962;SDS011;47927;42.646;23.096;2023-02-15T12:16:25;14.45;;;9.10;;
61962;SDS011;47927;42.646;23.096;2023-02-15T12:18:53;16.80;;;8.85;;
61962;SDS011;47927;42.646;23.096;2023-02-15T12:24:17;13.95;;;9.05;;
61962;SDS011;47927;42.646;23.096;2023-02-15T12:26:55;13.80;;;8.88;;
61962;SDS011;47927;42.646;23.096;2023-02-15T12:29:27;18.63;;;10.10;;
61962;SDS011;47927;42.646;23.096;2023-02-15T12:31:59;16.08;;;9.50;;
61962;SDS011;47927;42.646;23.096;2023-02-15T12:34:28;12.80;;;8.05;;
61962;SDS011;47927;42.646;23.096;2023-02-15T12:36:58;13.10;;;9.18;;
61962;SDS011;47927;42.646;23.096;2023-02-15T12:39:31;14.50;;;9.15;;
61962;SDS011;47927;42.646;23.096;2023-02-15T12:44:33;15.02;;;8.40;;
61962;SDS011;47927;42.646;23.096;2023-02-15T12:49:43;16.10;;;9.60;;
61962;SDS011;47927;42.646;23.096;2023-02-15T12:54:45;12.13;;;7.97;;
61962;SDS011;47927;42.646;23.096;2023-02-15T12:59:52;19.85;;;9.75;;
61962;SDS011;47927;42.646;23.096;2023-02-15T13:02:54;16.02;;;8.18;;
61962;SDS011;47927;42.646;23.096;2023-02-15T13:05:37;15.80;;;8.73;;
61962;SDS011;47927;42.646;23.096;2023-02-15T13:08:15;17.00;;;9.73;;
61962;SDS011;47927;42.646;23.096;2023-02-15T13:10:56;13.70;;;9.48;;
61962;SDS011;47927;42.646;23.096;2023-02-15T13:13:29;12.27;;;8.20;;
61962;SDS011;47927;42.646;23.096;2023-02-15T13:15:59;13.15;;;7.72;;
61962;SDS011;47927;42.646;23.096;2023-02-15T13:18:34;15.95;;;9.77;;
61962;SDS011;47927;42.646;23.096;2023-02-15T13:23:40;16.75;;;9.45;;
61962;SDS011;47927;42.646;23.096;2023-02-15T13:26:13;16.52;;;9.70;;
61962;SDS011;47927;42.646;23.096;2023-02-15T13:29:03;15.30;;;8.75;;
61962;SDS011;47927;42.646;23.096;2023-02-15T13:31:38;14.85;;;8.88;;
61962;SDS011;47927;42.646;23.096;2023-02-15T13:34:16;15.52;;;8.65;;
61962;SDS011;47927;42.646;23.096;2023-02-15T13:45:30;16.02;;;9.13;;
61962;SDS011;47927;42.646;23.096;2023-02-15T14:16:48;18.48;;;10.48;;
61962;SDS011;47927;42.646;23.096;2023-02-15T14:19:29;14.27;;;9.23;;
61962;SDS011;47927;42.646;23.096;2023-02-15T14:22:00;16.73;;;10.13;;
61962;SDS011;47927;42.646;23.096;2023-02-15T14:27:26;20.02;;;10.93;;
61962;SDS011;47927;42.646;23.096;2023-02-15T14:30:03;17.60;;;10.32;;
61962;SDS011;47927;42.646;23.096;2023-02-15T14:33:43;20.10;;;11.40;;
61962;SDS011;47927;42.646;23.096;2023-02-15T14:35:50;27.60;;;13.40;;
61962;SDS011;47927;42.646;23.096;2023-02-15T14:44:15;16.52;;;9.77;;
61962;SDS011;47927;42.646;23.096;2023-02-15T14:47:07;19.67;;;9.93;;
61962;SDS011;47927;42.646;23.096;2023-02-15T14:49:37;18.27;;;10.73;;
61962;SDS011;47927;42.646;23.096;2023-02-15T14:52:08;16.92;;;7.38;;
61962;SDS011;47927;42.646;23.096;2023-02-15T15:00:17;18.88;;;11.13;;
61962;SDS011;47927;42.646;23.096;2023-02-15T15:02:28;16.83;;;10.23;;
61962;SDS011;47927;42.646;23.096;2023-02-15T15:05:18;18.27;;;11.00;;
61962;SDS011;47927;42.646;23.096;2023-02-15T15:07:48;17.88;;;10.68;;
61962;SDS011;47927;42.646;23.096;2023-02-15T15:15:11;19.45;;;10.50;;
61962;SDS011;47927;42.646;23.096;2023-02-15T15:20:54;23.30;;;11.40;;
61962;SDS011;47927;42.646;23.096;2023-02-15T15:25:43;19.10;;;10.40;;
61962;SDS011;47927;42.646;23.096;2023-02-15T15:31:10;16.42;;;10.55;;
61962;SDS011;47927;42.646;23.096;2023-02-15T15:37:40;19.90;;;9.80;;
61962;SDS011;47927;42.646;23.096;2023-02-15T15:48:33;16.98;;;10.60;;
61962;SDS011;47927;42.646;23.096;2023-02-15T15:51:05;17.98;;;9.63;;
61962;SDS011;47927;42.646;23.096;2023-02-15T15:53:34;20.15;;;11.35;;
61962;SDS011;47927;42.646;23.096;2023-02-15T15:56:08;17.17;;;11.25;;
61962;SDS011;47927;42.646;23.096;2023-02-15T15:58:41;21.02;;;10.50;;
61962;SDS011;47927;42.646;23.096;2023-02-15T16:01:10;18.00;;;10.23;;
61962;SDS011;47927;42.646;23.096;2023-02-15T16:03:49;18.33;;;11.23;;
61962;SDS011;47927;42.646;23.096;2023-02-15T16:06:31;21.27;;;11.10;;
61962;SDS011;47927;42.646;23.096;2023-02-15T16:11:49;18.88;;;9.48;;
61962;SDS011;47927;42.646;23.096;2023-02-15T16:14:36;17.77;;;9.60;;
61962;SDS011;47927;42.646;23.096;2023-02-15T16:17:05;16.33;;;9.32;;
61962;SDS011;47927;42.646;23.096;2023-02-15T16:19:39;16.30;;;9.63;;
61962;SDS011;47927;42.646;23.096;2023-02-15T16:22:11;10.77;;;6.38;;
61962;SDS011;47927;42.646;23.096;2023-02-15T16:49:21;24.15;;;14.40;;
61962;SDS011;47927;42.646;23.096;2023-02-15T16:54:23;21.25;;;13.15;;
61962;SDS011;47927;42.646;23.096;2023-02-15T16:56:50;29.83;;;17.23;;
61962;SDS011;47927;42.646;23.096;2023-02-15T17:02:24;17.75;;;10.07;;
61962;SDS011;47927;42.646;23.096;2023-02-15T17:07:40;20.85;;;9.88;;
61962;SDS011;47927;42.646;23.096;2023-02-15T17:13:31;20.17;;;10.32;;
61962;SDS011;47927;42.646;23.096;2023-02-15T17:18:46;14.88;;;8.98;;
61962;SDS011;47927;42.646;23.096;2023-02-15T17:21:12;15.80;;;9.52;;
61962;SDS011;47927;42.646;23.096;2023-02-15T17:23:46;17.65;;;10.27;;
61962;SDS011;47927;42.646;23.096;2023-02-15T17:26:19;21.20;;;10.30;;
61962;SDS011;47927;42.646;23.096;2023-02-15T17:28:46;17.60;;;10.07;;
61962;SDS011;47927;42.646;23.096;2023-02-15T17:31:15;15.35;;;8.50;;
61962;SDS011;47927;42.646;23.096;2023-02-15T17:33:43;16.80;;;9.88;;
61962;SDS011;47927;42.646;23.096;2023-02-15T17:38:39;19.73;;;9.68;;
61962;SDS011;47927;42.646;23.096;2023-02-15T17:41:06;15.88;;;9.68;;
61962;SDS011;47927;42.646;23.096;2023-02-15T17:43:32;17.35;;;9.15;;
61962;SDS011;47927;42.646;23.096;2023-02-15T17:45:58;16.98;;;9.75;;
61962;SDS011;47927;42.646;23.096;2023-02-15T17:48:26;17.60;;;9.73;;
61962;SDS011;47927;42.646;23.096;2023-02-15T17:51:00;12.38;;;7.65;;
61962;SDS011;47927;42.646;23.096;2023-02-15T17:55:52;12.45;;;7.38;;
61962;SDS011;47927;42.646;23.096;2023-02-15T17:58:19;12.88;;;7.47;;
61962;SDS011;47927;42.646;23.096;2023-02-15T18:00:46;16.15;;;9.48;;
61962;SDS011;47927;42.646;23.096;2023-02-15T18:03:45;17.08;;;9.65;;
61962;SDS011;47927;42.646;23.096;2023-02-15T18:06:31;16.65;;;9.50;;
61962;SDS011;47927;42.646;23.096;2023-02-15T18:09:17;17.58;;;9.65;;
61962;SDS011;47927;42.646;23.096;2023-02-15T18:12:10;15.63;;;9.55;;
61962;SDS011;47927;42.646;23.096;2023-02-15T18:14:39;19.38;;;10.27;;
61962;SDS011;47927;42.646;23.096;2023-02-15T18:17:05;18.40;;;10.10;;
61962;SDS011;47927;42.646;23.096;2023-02-15T18:19:36;18.27;;;8.68;;
61962;SDS011;47927;42.646;23.096;2023-02-15T18:22:04;15.43;;;8.50;;
61962;SDS011;47927;42.646;23.096;2023-02-15T18:24:34;15.65;;;8.18;;
61962;SDS011;47927;42.646;23.096;2023-02-15T18:27:00;14.20;;;8.38;;
61962;SDS011;47927;42.646;23.096;2023-02-15T18:29:25;15.70;;;9.50;;
61962;SDS011;47927;42.646;23.096;2023-02-15T18:31:51;16.90;;;9.15;;
61962;SDS011;47927;42.646;23.096;2023-02-15T18:34:21;13.65;;;8.25;;
61962;SDS011;47927;42.646;23.096;2023-02-15T18:36:51;15.52;;;9.20;;
61962;SDS011;47927;42.646;23.096;2023-02-15T18:41:49;15.23;;;9.32;;
61962;SDS011;47927;42.646;23.096;2023-02-15T18:44:14;16.20;;;10.02;;
61962;SDS011;47927;42.646;23.096;2023-02-15T18:46:40;17.13;;;9.75;;
61962;SDS011;47927;42.646;23.096;2023-02-15T18:49:05;13.75;;;8.55;;
61962;SDS011;47927;42.646;23.096;2023-02-15T18:51:31;11.00;;;7.38;;
61962;SDS011;47927;42.646;23.096;2023-02-15T18:53:59;13.10;;;8.38;;
61962;SDS011;47927;42.646;23.096;2023-02-15T18:56:26;14.88;;;8.80;;
61962;SDS011;47927;42.646;23.096;2023-02-15T18:58:52;17.60;;;8.20;;
61962;SDS011;47927;42.646;23.096;2023-02-15T19:01:19;13.90;;;7.95;;
61962;SDS011;47927;42.646;23.096;2023-02-15T19:03:46;14.63;;;8.00;;